createdAt,value
2022-12-24T00:01:34.279Z,1.88
2022-12-24T00:04:01.053Z,1.35
2022-12-24T00:06:27.690Z,1.75
2022-12-24T00:08:54.341Z,2.05
2022-12-24T00:11:21.471Z,1.65
2022-12-24T00:13:48.654Z,2.22
2022-12-24T00:16:15.415Z,2.08
2022-12-24T00:18:46.166Z,2.45
2022-12-24T00:21:13.543Z,1.98
2022-12-24T00:23:40.680Z,1.92
2022-12-24T00:26:07.389Z,2.00
2022-12-24T00:28:34.022Z,2.10
2022-12-24T00:31:00.705Z,2.05
2022-12-24T00:33:27.351Z,2.38
2022-12-24T00:35:54.280Z,2.03
2022-12-24T00:38:21.148Z,2.05
2022-12-24T00:40:47.823Z,2.35
2022-12-24T00:43:14.521Z,2.40
2022-12-24T00:45:41.376Z,2.38
2022-12-24T00:48:08.028Z,3.00
2022-12-24T00:50:34.702Z,2.05
2022-12-24T00:53:01.370Z,2.05
2022-12-24T00:55:28.058Z,2.85
2022-12-24T00:57:54.739Z,2.35
2022-12-24T01:00:21.434Z,2.72
2022-12-24T01:02:48.264Z,2.58
2022-12-24T01:05:15.130Z,2.70
2022-12-24T01:07:44.533Z,2.65
2022-12-24T01:10:13.728Z,2.78
2022-12-24T01:12:41.207Z,2.60
2022-12-24T01:15:08.575Z,2.33
2022-12-24T01:17:35.717Z,3.05
2022-12-24T01:20:03.708Z,2.80
2022-12-24T01:22:30.334Z,3.30
2022-12-24T01:24:56.971Z,3.50
2022-12-24T01:27:23.644Z,3.58
2022-12-24T01:29:50.284Z,3.60
2022-12-24T01:32:16.995Z,3.25
2022-12-24T01:34:43.721Z,3.40
2022-12-24T01:37:10.358Z,3.50
2022-12-24T01:39:37.004Z,3.78
2022-12-24T01:42:40.054Z,2.88
2022-12-24T01:45:35.078Z,3.60
2022-12-24T01:48:01.881Z,2.80
2022-12-24T01:50:28.973Z,2.90
2022-12-24T01:52:55.857Z,4.50
2022-12-24T01:55:22.540Z,4.22
2022-12-24T01:57:53.411Z,4.80
2022-12-24T02:00:20.485Z,5.13
2022-12-24T02:02:49.085Z,5.28
2022-12-24T02:05:32.493Z,5.20
2022-12-24T02:08:00.811Z,5.30
2022-12-24T02:10:27.481Z,5.32
2022-12-24T02:12:54.773Z,4.03
2022-12-24T02:15:21.934Z,4.88
2022-12-24T02:17:57.065Z,4.80
2022-12-24T02:20:32.674Z,5.55
2022-12-24T02:23:36.990Z,4.35
2022-12-24T02:26:22.426Z,4.32
2022-12-24T02:29:18.476Z,4.00
2022-12-24T02:31:51.383Z,3.63
2022-12-24T02:34:36.307Z,3.67
2022-12-24T02:37:18.263Z,3.40
2022-12-24T02:39:53.069Z,4.05
2022-12-24T02:42:25.830Z,3.38
2022-12-24T02:45:08.180Z,3.00
2022-12-24T02:47:35.477Z,3.80
2022-12-24T02:50:03.190Z,3.55
2022-12-24T02:52:35.018Z,3.72
2022-12-24T02:55:24.360Z,3.70
2022-12-24T02:58:00.102Z,4.32
2022-12-24T03:00:27.187Z,3.20
2022-12-24T03:03:23.116Z,2.97
2022-12-24T03:05:56.966Z,3.30
2022-12-24T03:08:45.025Z,2.60
2022-12-24T03:11:14.250Z,2.85
2022-12-24T03:13:42.589Z,3.72
2022-12-24T03:16:12.556Z,3.17
2022-12-24T03:18:41.625Z,3.60
2022-12-24T03:21:16.742Z,3.10
2022-12-24T03:23:43.626Z,3.08
2022-12-24T03:26:11.513Z,3.42
2022-12-24T03:28:40.241Z,3.13
2022-12-24T03:31:07.861Z,3.53
2022-12-24T03:33:34.981Z,3.25
2022-12-24T03:36:02.198Z,3.10
2022-12-24T03:38:28.859Z,3.03
2022-12-24T03:40:55.625Z,2.90
2022-12-24T03:43:22.316Z,3.55
2022-12-24T03:45:48.997Z,2.80
2022-12-24T03:48:15.767Z,2.50
2022-12-24T03:50:42.786Z,2.92
2022-12-24T03:53:09.787Z,3.17
2022-12-24T03:55:36.446Z,3.20
2022-12-24T03:58:03.161Z,3.38
2022-12-24T04:00:29.874Z,2.53
2022-12-24T04:02:56.599Z,2.60
2022-12-24T04:05:23.393Z,2.83
2022-12-24T04:07:50.163Z,2.72
2022-12-24T04:10:17.239Z,3.03
2022-12-24T04:12:44.121Z,2.85
2022-12-24T04:15:11.063Z,2.95
2022-12-24T04:17:37.729Z,2.63
2022-12-24T04:20:04.746Z,3.55
2022-12-24T04:22:32.519Z,3.03
2022-12-24T04:24:59.164Z,3.05
2022-12-24T04:27:30.407Z,2.15
2022-12-24T04:29:57.716Z,3.03
2022-12-24T04:32:26.194Z,3.38
2022-12-24T04:34:53.031Z,2.67
2022-12-24T04:37:19.748Z,2.95
2022-12-24T04:39:46.420Z,3.05
2022-12-24T04:42:13.155Z,3.05
2022-12-24T04:44:39.797Z,3.15
2022-12-24T04:47:06.466Z,2.50
2022-12-24T04:49:33.134Z,2.83
2022-12-24T04:51:59.799Z,2.97
2022-12-24T04:54:26.797Z,2.85
2022-12-24T04:56:53.506Z,2.22
2022-12-24T04:59:20.189Z,3.05
2022-12-24T05:01:46.888Z,2.75
2022-12-24T05:04:13.649Z,2.20
2022-12-24T05:06:40.372Z,3.13
2022-12-24T05:09:07.087Z,2.85
2022-12-24T05:11:33.733Z,2.75
2022-12-24T05:14:00.464Z,3.33
2022-12-24T05:16:27.264Z,2.28
2022-12-24T05:18:54.256Z,3.10
2022-12-24T05:21:23.050Z,2.80
2022-12-24T05:24:08.750Z,3.40
2022-12-24T05:26:48.563Z,2.60
2022-12-24T05:29:15.648Z,2.55
2022-12-24T05:31:43.458Z,3.15
2022-12-24T05:34:10.715Z,2.97
2022-12-24T05:36:37.713Z,2.85
2022-12-24T05:39:06.275Z,3.33
2022-12-24T05:41:36.646Z,2.75
2022-12-24T05:44:03.340Z,2.45
2022-12-24T05:46:30.114Z,3.08
2022-12-24T05:48:56.831Z,2.97
2022-12-24T05:51:23.828Z,4.03
2022-12-24T05:53:51.545Z,4.72
2022-12-24T05:56:21.235Z,5.32
2022-12-24T05:58:48.224Z,3.88
2022-12-24T06:01:15.196Z,3.35
2022-12-24T06:03:42.275Z,2.88
2022-12-24T06:06:14.879Z,3.13
2022-12-24T06:08:42.485Z,3.10
2022-12-24T06:11:12.176Z,3.25
2022-12-24T06:13:40.210Z,2.22
2022-12-24T06:16:09.638Z,2.50
2022-12-24T06:18:36.962Z,1.90
2022-12-24T06:21:04.734Z,2.53
2022-12-24T06:23:33.360Z,3.00
2022-12-24T06:26:01.954Z,3.15
2022-12-24T06:28:33.253Z,2.83
2022-12-24T06:31:03.333Z,3.00
2022-12-24T06:33:31.757Z,2.83
2022-12-24T06:35:58.643Z,2.53
2022-12-24T06:38:25.613Z,2.20
2022-12-24T06:40:52.377Z,2.35
2022-12-24T06:43:19.072Z,2.08
2022-12-24T06:45:47.108Z,2.63
2022-12-24T06:48:15.283Z,3.17
2022-12-24T06:50:42.523Z,2.67
2022-12-24T06:53:09.751Z,2.33
2022-12-24T06:55:36.463Z,3.53
2022-12-24T06:58:03.658Z,2.70
2022-12-24T07:00:30.420Z,3.42
2022-12-24T07:02:57.120Z,3.10
2022-12-24T07:05:23.841Z,3.08
2022-12-24T07:07:50.527Z,3.45
2022-12-24T07:10:18.053Z,3.30
2022-12-24T07:12:44.836Z,2.70
2022-12-24T07:15:12.069Z,3.13
2022-12-24T07:17:39.105Z,3.00
2022-12-24T07:20:07.098Z,3.08
2022-12-24T07:22:34.114Z,2.78
2022-12-24T07:25:00.779Z,3.10
2022-12-24T07:27:27.454Z,3.00
2022-12-24T07:29:55.386Z,2.58
2022-12-24T07:32:22.088Z,2.85
2022-12-24T07:34:48.775Z,2.70
2022-12-24T07:37:16.371Z,3.20
2022-12-24T07:39:43.010Z,3.10
2022-12-24T07:42:09.667Z,3.10
2022-12-24T07:44:36.396Z,2.38
2022-12-24T07:47:03.181Z,2.40
2022-12-24T07:49:30.136Z,2.70
2022-12-24T07:51:56.859Z,3.53
2022-12-24T07:54:23.600Z,2.95
2022-12-24T07:56:50.300Z,2.70
2022-12-24T07:59:16.981Z,2.92
2022-12-24T08:01:43.846Z,3.05
2022-12-24T08:04:10.966Z,2.65
2022-12-24T08:06:37.703Z,3.50
2022-12-24T08:09:04.456Z,3.33
2022-12-24T08:11:31.148Z,2.78
2022-12-24T08:13:57.878Z,2.90
2022-12-24T08:16:24.665Z,3.00
2022-12-24T08:18:51.383Z,2.92
2022-12-24T08:21:18.112Z,3.53
2022-12-24T08:23:47.039Z,2.53
2022-12-24T08:26:13.921Z,2.75
2022-12-24T08:28:40.697Z,2.78
2022-12-24T08:31:07.508Z,2.72
2022-12-24T08:33:34.188Z,3.10
2022-12-24T08:36:02.066Z,3.17
2022-12-24T08:38:28.989Z,2.70
2022-12-24T08:40:55.990Z,2.70
2022-12-24T08:43:23.231Z,2.88
2022-12-24T08:45:50.217Z,2.83
2022-12-24T08:48:17.412Z,3.15
2022-12-24T08:50:44.941Z,2.80
2022-12-24T08:53:11.673Z,2.90
2022-12-24T08:55:38.477Z,2.85
2022-12-24T08:58:05.571Z,2.58
2022-12-24T09:00:32.253Z,2.53
2022-12-24T09:02:59.222Z,2.97
2022-12-24T09:05:26.234Z,3.63
2022-12-24T09:07:53.077Z,2.78
2022-12-24T09:10:19.841Z,3.55
2022-12-24T09:12:46.647Z,3.20
2022-12-24T09:15:14.297Z,3.53
2022-12-24T09:17:41.449Z,3.13
2022-12-24T09:20:08.960Z,2.88
2022-12-24T09:22:37.077Z,2.45
2022-12-24T09:25:04.825Z,3.35
2022-12-24T09:27:31.816Z,3.00
2022-12-24T09:29:58.524Z,3.08
2022-12-24T09:32:25.467Z,3.03
2022-12-24T09:34:52.131Z,3.65
2022-12-24T09:37:18.888Z,3.75
2022-12-24T09:39:45.523Z,3.35
2022-12-24T09:42:15.061Z,2.70
2022-12-24T09:44:49.443Z,4.07
2022-12-24T09:47:27.067Z,3.38
2022-12-24T09:49:55.824Z,3.80
2022-12-24T09:52:29.340Z,2.78
2022-12-24T09:55:06.420Z,3.78
2022-12-24T09:57:37.029Z,3.35
2022-12-24T10:00:04.882Z,6.88
2022-12-24T10:02:32.439Z,3.90
2022-12-24T10:04:59.248Z,9.70
2022-12-24T10:07:59.249Z,6.07
2022-12-24T10:10:39.209Z,6.75
2022-12-24T10:13:49.933Z,3.10
2022-12-24T10:16:42.403Z,3.38
2022-12-24T10:19:15.033Z,3.13
2022-12-24T10:22:05.150Z,6.35
2022-12-24T10:24:51.274Z,14.20
2022-12-24T10:27:19.528Z,10.35
2022-12-24T10:29:52.935Z,7.28
2022-12-24T10:32:26.606Z,7.05
2022-12-24T10:34:58.852Z,12.25
2022-12-24T10:37:28.680Z,3.47
2022-12-24T10:39:57.262Z,3.53
2022-12-24T10:42:36.835Z,3.00
2022-12-24T10:45:07.717Z,3.25
2022-12-24T10:47:34.871Z,3.42
2022-12-24T10:50:06.243Z,3.25
2022-12-24T10:52:36.005Z,3.15
2022-12-24T10:55:18.127Z,2.55
2022-12-24T10:58:01.889Z,3.47
2022-12-24T11:00:35.560Z,3.53
2022-12-24T11:03:22.982Z,3.40
2022-12-24T11:06:21.100Z,3.10
2022-12-24T11:08:48.072Z,3.38
2022-12-24T11:11:20.392Z,2.75
2022-12-24T11:13:50.242Z,3.30
2022-12-24T11:16:29.912Z,3.85
2022-12-24T11:18:58.784Z,3.67
2022-12-24T11:21:36.285Z,4.47
2022-12-24T11:24:29.556Z,8.48
2022-12-24T11:27:42.888Z,8.05
2022-12-24T11:30:15.740Z,3.13
2022-12-24T11:32:43.886Z,3.38
2022-12-24T11:35:21.744Z,2.83
2022-12-24T11:38:00.636Z,3.60
2022-12-24T11:40:44.323Z,3.40
2022-12-24T11:43:17.080Z,2.70
2022-12-24T11:45:55.758Z,3.15
2022-12-24T11:48:29.469Z,2.85
2022-12-24T11:51:05.070Z,3.17
2022-12-24T11:53:48.949Z,3.63
2022-12-24T11:56:27.487Z,3.85
2022-12-24T11:58:59.254Z,3.17
2022-12-24T12:01:46.875Z,2.88
2022-12-24T12:04:17.553Z,3.92
2022-12-24T12:06:55.515Z,10.82
2022-12-24T12:09:34.969Z,6.70
2022-12-24T12:12:12.469Z,4.20
2022-12-24T12:15:14.140Z,3.05
2022-12-24T12:17:48.425Z,2.92
2022-12-24T12:20:30.354Z,4.18
2022-12-24T12:23:18.131Z,3.13
2022-12-24T12:25:55.381Z,3.00
2022-12-24T12:28:56.386Z,2.90
2022-12-24T12:31:30.474Z,2.70
2022-12-24T12:34:13.219Z,2.47
2022-12-24T12:36:47.432Z,2.40
2022-12-24T12:39:14.352Z,3.47
2022-12-24T12:41:54.487Z,3.00
2022-12-24T12:44:46.715Z,3.58
2022-12-24T12:47:23.317Z,3.15
2022-12-24T12:50:11.554Z,4.20
2022-12-24T12:52:43.269Z,3.15
2022-12-24T12:55:33.364Z,3.38
2022-12-24T12:58:23.013Z,4.72
2022-12-24T13:00:53.240Z,3.53
2022-12-24T13:03:32.218Z,3.30
2022-12-24T13:06:27.801Z,4.20
2022-12-24T13:12:22.284Z,3.30
2022-12-24T13:15:01.467Z,2.72
2022-12-24T13:17:33.966Z,2.83
2022-12-24T13:20:19.259Z,2.30
2022-12-24T13:23:17.222Z,2.58
2022-12-24T13:25:50.235Z,2.58
2022-12-24T13:28:19.695Z,2.35
2022-12-24T13:30:47.930Z,2.30
2022-12-24T13:33:37.154Z,2.72
2022-12-24T13:36:05.881Z,2.78
2022-12-24T13:38:40.285Z,2.83
2022-12-24T13:41:38.356Z,2.30
2022-12-24T13:44:13.443Z,2.70
2022-12-24T13:46:51.948Z,2.78
2022-12-24T13:49:38.385Z,2.75
2022-12-24T13:52:11.160Z,2.95
2022-12-24T13:54:42.993Z,3.28
2022-12-24T13:57:32.854Z,2.55
2022-12-24T14:00:21.713Z,2.78
2022-12-24T14:03:00.412Z,3.45
2022-12-24T14:05:39.437Z,3.28
2022-12-24T14:08:09.806Z,3.53
2022-12-24T14:10:42.520Z,2.60
2022-12-24T14:13:40.189Z,2.63
2022-12-24T14:16:22.607Z,2.67
2022-12-24T14:19:16.574Z,2.80
2022-12-24T14:22:01.709Z,3.10
2022-12-24T14:27:06.162Z,2.60
2022-12-24T14:29:35.111Z,2.58
2022-12-24T14:32:07.129Z,3.38
2022-12-24T14:34:33.881Z,3.30
2022-12-24T14:37:04.330Z,3.30
2022-12-24T14:39:34.694Z,3.63
2022-12-24T14:42:30.740Z,2.38
2022-12-24T14:45:17.619Z,2.38
2022-12-24T14:47:56.658Z,2.65
2022-12-24T14:50:26.106Z,3.67
2022-12-24T14:53:05.346Z,2.50
2022-12-24T14:55:42.539Z,2.53
2022-12-24T14:58:27.330Z,2.55
2022-12-24T15:01:02.969Z,3.47
2022-12-24T15:03:32.208Z,3.70
2022-12-24T15:06:02.061Z,3.60
2022-12-24T15:08:55.259Z,2.67
2022-12-24T15:11:23.254Z,2.75
2022-12-24T15:13:57.953Z,2.67
2022-12-24T15:19:28.525Z,3.85
2022-12-24T15:21:55.773Z,3.22
2022-12-24T15:24:34.333Z,4.25
2022-12-24T15:27:11.556Z,3.47
2022-12-24T15:29:43.808Z,2.70
2022-12-24T15:32:13.783Z,3.20
2022-12-24T15:34:43.501Z,3.35
2022-12-24T15:37:21.127Z,3.58
2022-12-24T15:40:18.563Z,3.40
2022-12-24T15:42:45.721Z,3.38
2022-12-24T15:45:28.248Z,3.88
2022-12-24T15:48:00.843Z,4.28
2022-12-24T15:50:36.924Z,3.15
2022-12-24T15:53:21.988Z,2.97
2022-12-24T15:56:26.961Z,3.00
2022-12-24T15:58:53.697Z,3.00
2022-12-24T16:01:28.641Z,2.17
2022-12-24T16:03:58.093Z,2.08
2022-12-24T16:06:25.631Z,2.88
2022-12-24T16:08:52.359Z,2.70
2022-12-24T16:11:21.458Z,1.95
2022-12-24T16:13:51.213Z,2.60
2022-12-24T16:16:20.765Z,2.25
2022-12-24T16:18:58.335Z,2.38
2022-12-24T16:21:29.016Z,2.22
2022-12-24T16:23:57.672Z,2.40
2022-12-24T16:26:24.579Z,2.03
2022-12-24T16:28:51.338Z,2.75
2022-12-24T16:31:20.348Z,5.75
2022-12-24T16:33:47.301Z,4.45
2022-12-24T16:36:14.627Z,3.97
2022-12-24T16:38:59.855Z,3.80
2022-12-24T16:41:26.558Z,3.28
2022-12-24T16:43:53.268Z,3.75
2022-12-24T16:46:20.071Z,3.15
2022-12-24T16:48:48.111Z,3.45
2022-12-24T16:51:14.840Z,2.92
2022-12-24T16:53:41.646Z,3.10
2022-12-24T16:56:08.351Z,3.30
2022-12-24T16:58:35.229Z,3.65
2022-12-24T17:01:07.985Z,3.05
2022-12-24T17:03:35.595Z,4.28
2022-12-24T17:06:06.210Z,6.72
2022-12-24T17:08:33.286Z,10.02
2022-12-24T17:11:00.006Z,12.57
2022-12-24T17:13:26.719Z,8.20
2022-12-24T17:15:53.436Z,3.78
2022-12-24T17:18:20.171Z,3.75
2022-12-24T17:21:00.348Z,3.60
2022-12-24T17:23:27.598Z,4.22
2022-12-24T17:25:54.294Z,5.22
2022-12-24T17:28:21.916Z,4.53
2022-12-24T17:30:48.609Z,4.72
2022-12-24T17:33:15.357Z,5.32
2022-12-24T17:35:43.451Z,4.97
2022-12-24T17:38:10.169Z,4.18
2022-12-24T17:40:36.836Z,5.35
2022-12-24T17:43:03.535Z,4.40
2022-12-24T17:45:30.208Z,3.83
2022-12-24T17:47:57.151Z,4.13
2022-12-24T17:50:23.844Z,6.15
2022-12-24T17:52:50.741Z,5.15
2022-12-24T17:55:17.488Z,5.93
2022-12-24T17:57:44.241Z,4.75
2022-12-24T18:00:11.619Z,3.97
2022-12-24T18:02:39.014Z,3.30
2022-12-24T18:05:06.079Z,4.60
2022-12-24T18:07:32.746Z,4.68
2022-12-24T18:09:59.920Z,5.00
2022-12-24T18:12:26.602Z,6.22
2022-12-24T18:14:53.281Z,5.90
2022-12-24T18:17:20.027Z,6.75
2022-12-24T18:19:46.696Z,6.63
2022-12-24T18:22:13.396Z,7.60
2022-12-24T18:24:40.194Z,6.68
2022-12-24T18:27:06.880Z,6.35
2022-12-24T18:29:33.747Z,5.50
2022-12-24T18:32:00.412Z,3.65
2022-12-24T18:34:27.437Z,3.15
2022-12-24T18:36:55.550Z,2.67
2022-12-24T18:39:22.684Z,2.10
2022-12-24T18:41:49.569Z,2.47
2022-12-24T18:44:22.519Z,2.08
2022-12-24T18:46:51.703Z,3.22
2022-12-24T18:49:18.423Z,3.05
2022-12-24T18:51:45.133Z,2.35
2022-12-24T18:54:11.812Z,2.30
2022-12-24T18:56:38.485Z,2.15
2022-12-24T18:59:05.233Z,2.20
2022-12-24T19:01:34.359Z,3.20
2022-12-24T19:04:01.634Z,2.33
2022-12-24T19:06:28.560Z,2.90
2022-12-24T19:08:57.780Z,2.30
2022-12-24T19:11:27.106Z,2.22
2022-12-24T19:13:53.991Z,2.63
2022-12-24T19:16:21.507Z,2.65
2022-12-24T19:18:48.697Z,2.30
2022-12-24T19:21:17.256Z,2.30
2022-12-24T19:23:45.003Z,2.17
2022-12-24T19:26:12.928Z,2.22
2022-12-24T19:28:39.997Z,1.92
2022-12-24T19:31:12.127Z,2.28
2022-12-24T19:33:42.898Z,1.77
2022-12-24T19:36:12.704Z,2.20
2022-12-24T19:38:39.732Z,2.15
2022-12-24T19:41:12.623Z,2.47
2022-12-24T19:43:44.876Z,2.42
2022-12-24T19:46:14.566Z,2.40
2022-12-24T19:48:42.270Z,2.28
2022-12-24T19:51:11.009Z,2.80
2022-12-24T19:53:38.576Z,2.38
2022-12-24T19:56:06.161Z,1.80
2022-12-24T19:58:32.865Z,2.28
2022-12-24T20:01:16.987Z,2.67
2022-12-24T20:03:45.606Z,2.38
2022-12-24T20:06:13.186Z,2.53
2022-12-24T20:08:40.345Z,2.67
2022-12-24T20:11:08.860Z,2.53
2022-12-24T20:13:37.484Z,3.00
2022-12-24T20:16:09.792Z,2.70
2022-12-24T20:18:36.753Z,2.22
2022-12-24T20:21:05.497Z,3.05
2022-12-24T20:23:32.511Z,2.33
2022-12-24T20:26:01.594Z,3.33
2022-12-24T20:28:29.774Z,3.42
2022-12-24T20:30:56.467Z,3.70
2022-12-24T20:33:23.265Z,3.30
2022-12-24T20:35:50.238Z,2.88
2022-12-24T20:38:17.031Z,2.53
2022-12-24T20:40:45.482Z,1.80
2022-12-24T20:43:12.524Z,2.15
2022-12-24T20:45:39.394Z,1.98
2022-12-24T20:48:06.901Z,1.63
2022-12-24T20:50:33.979Z,1.52
2022-12-24T20:53:00.723Z,1.70
2022-12-24T20:55:27.497Z,1.58
2022-12-24T20:57:54.173Z,3.00
2022-12-24T21:00:21.318Z,3.15
2022-12-24T21:02:48.132Z,2.78
2022-12-24T21:05:15.257Z,2.30
2022-12-24T21:07:43.477Z,2.35
2022-12-24T21:10:11.491Z,2.03
2022-12-24T21:12:51.972Z,1.92
2022-12-24T21:15:21.509Z,2.10
2022-12-24T21:17:48.636Z,2.08
2022-12-24T21:20:15.996Z,3.05
2022-12-24T21:22:43.466Z,1.75
2022-12-24T21:25:11.344Z,2.53
2022-12-24T21:27:38.668Z,1.80
2022-12-24T21:30:08.164Z,1.90
2022-12-24T21:32:36.098Z,2.10
2022-12-24T21:35:02.961Z,1.60
2022-12-24T21:37:29.675Z,1.77
2022-12-24T21:39:56.429Z,2.08
2022-12-24T21:42:23.095Z,2.05
2022-12-24T21:44:49.739Z,1.65
2022-12-24T21:47:17.298Z,1.90
2022-12-24T21:50:02.945Z,1.60
2022-12-24T21:52:29.645Z,1.45
2022-12-24T21:54:56.280Z,2.00
2022-12-24T21:57:41.560Z,1.75
2022-12-24T22:00:27.035Z,1.67
2022-12-24T22:02:56.584Z,2.00
2022-12-24T22:05:25.889Z,1.80
2022-12-24T22:08:12.241Z,1.88
2022-12-24T22:10:57.957Z,1.90
2022-12-24T22:13:25.353Z,1.58
2022-12-24T22:15:53.184Z,1.58
2022-12-24T22:18:22.815Z,1.80
2022-12-24T22:20:49.713Z,1.50
2022-12-24T22:23:17.349Z,1.50
2022-12-24T22:25:44.350Z,1.73
2022-12-24T22:28:11.261Z,1.50
2022-12-24T22:30:39.603Z,2.00
2022-12-24T22:33:06.723Z,1.63
2022-12-24T22:35:33.696Z,1.60
2022-12-24T22:38:00.703Z,1.90
2022-12-24T22:40:28.043Z,1.50
2022-12-24T22:42:54.873Z,1.50
2022-12-24T22:45:22.686Z,1.42
2022-12-24T22:47:49.938Z,1.73
2022-12-24T22:50:16.845Z,1.75
2022-12-24T22:52:43.604Z,1.92
2022-12-24T22:55:10.450Z,1.35
2022-12-24T22:57:37.146Z,1.77
2022-12-24T23:00:19.197Z,1.83
2022-12-24T23:02:47.050Z,1.48
2022-12-24T23:05:14.862Z,1.70
2022-12-24T23:07:41.743Z,1.58
2022-12-24T23:10:09.012Z,1.15
2022-12-24T23:12:54.482Z,1.20
2022-12-24T23:15:21.189Z,1.45
2022-12-24T23:17:50.800Z,1.48
2022-12-24T23:20:17.754Z,1.75
2022-12-24T23:22:44.725Z,1.17
2022-12-24T23:25:11.789Z,1.05
2022-12-24T23:27:38.677Z,1.10
2022-12-24T23:30:05.876Z,1.40
2022-12-24T23:32:32.577Z,1.38
2022-12-24T23:34:59.237Z,1.20
2022-12-24T23:37:31.087Z,1.05
2022-12-24T23:40:01.439Z,1.02
2022-12-24T23:42:28.209Z,1.13
2022-12-24T23:44:54.891Z,0.90
2022-12-24T23:47:21.623Z,1.00
2022-12-24T23:49:48.621Z,0.88
2022-12-24T23:52:15.300Z,0.93
2022-12-24T23:54:42.050Z,1.02
2022-12-24T23:57:08.733Z,1.00
2022-12-24T23:59:35.574Z,0.88
